Terminal Aerodrome Forecast
Issued by NWS

Home | Current Version | Previous Version | Text Only | Print | Product List | Glossary On
Versions: 1 2 3 4 5 6 7 8 9 10 11 12
000
FTUS46 KOTX 291729
TAFSFF
TAF
KSFF 291729Z 2918/3018 VRB03KT P6SM SCT090 SCT150 SCT250
     FM292200 23005KT P6SM FEW150 BKN250
     FM300200 VRB03KT P6SM SCT080 BKN150
     FM300900 03003KT P6SM -SHRA SCT050 OVC080
     FM301400 VRB03KT P6SM VCSH SCT090 BKN120=

USA.gov is the U.S. government's official web portal to all federal, state and local government web resources and services.